Hauptseite
METAR-TAF:

METAR-TAF

Flughäfen :

Flughafen Teheran-Mehrabad

Teheran, Iran

Breite: 35-41N, Länge: 051-21E, Höhe: 1204 m

Beobachtung

Neuester Wetterbericht von vor 37 Minuten, um 22:30 UTC
Wind 6 kt aus West
Temperatur 25°C
Luftfeuchtigkeit 32%
Luftdruck 1008 hPa
Sichtweite 10 km oder mehr
keine Wolken unter 1500 m und keine Kumulonimbus oder Gewitterwolken

METAR: OIII 232230Z 27006KT CAVOK 25/07 Q1008 A2978

Zeit: 03:37 (23:07 UTC)

Prognose

Neuester Wetterbericht von vor 5 Stunden und 37 Minuten, um 17:30 UTC
Gültige Prognose vom 23 um 18 UTC bis 24 um 24 UTC
Wind 8 kt aus West/Südwest
Sichtweite: 8000 m
Leicht bewölkt in der Höhe von 4500 ft

TAF: OIII 231730Z 2318/2424 24004MPS 8000 FEW045

Wetterbeobachtungen und Prognosen von mehr als 4000 Flughäfen (METAR und TAF Bericht).

Die verfügbaren Stationen werden durch gelbe und rote Markierungen auf der Karte dargestellt.

Führen Sie die Maus auf sie, um den Namen der Station zu sehen.

Darauf klicken, um die Beobachtung von Wetterbeobachtungen und Prognosen zu sehen.

Um die Karte zu ändern : klicken Sie auf den grünen Tasten mit einem schwarzen Kreuz Zum Vergrößern, auf den grünen Button mit einem Gedankenstrich zu verkleinern, oder auf die grünen Pfeile für benachbarte Karten.


METAR-TAF: